Time;durP1;ratioP1;P1;durP2;ratioP2;P2;SDS_P1;SDS_P2;PMS_P1;PMS_P2;Temp;Humidity;BMP_temperature;BMP_pressure;BME280_temperature;BME280_humidity;BME280_pressure;Samples;Min_cycle;Max_cycle;Signal;HPM_P1;HPM_P2
2023/06/20 00:02:21;;;;;;;0.35;0.35;;;19.60;99.90;;;;;;5142818;27;20126;-65
2023/06/20 00:04:47;;;;;;;0.00;0.00;;;19.60;99.90;;;;;;5151282;27;20058;-65
2023/06/20 00:07:13;;;;;;;0.38;0.38;;;19.70;99.90;;;;;;5146702;27;20502;-65
2023/06/20 00:09:38;;;;;;;1.88;1.35;;;19.60;99.90;;;;;;5145340;27;20466;-65
2023/06/20 00:12:04;;;;;;;0.70;0.70;;;19.60;99.90;;;;;;5144133;27;20766;-65
2023/06/20 00:14:30;;;;;;;0.85;0.85;;;19.60;99.90;;;;;;5140456;27;20494;-65
2023/06/20 00:16:58;;;;;;;0.38;0.35;;;19.60;99.90;;;;;;5144884;27;20073;-65
2023/06/20 00:19:27;;;;;;;1.20;0.40;;;19.60;99.90;;;;;;5144563;27;20482;-65
2023/06/20 00:21:53;;;;;;;0.65;0.65;;;19.50;99.90;;;;;;5137930;27;20050;-65
2023/06/20 00:24:18;;;;;;;1.17;0.55;;;19.50;99.90;;;;;;5146276;27;20039;-65
2023/06/20 00:26:44;;;;;;;1.20;0.52;;;19.50;99.90;;;;;;5142278;27;20072;-65
2023/06/20 00:29:09;;;;;;;0.55;0.55;;;19.50;99.90;;;;;;5143328;27;20047;-65
2023/06/20 00:31:38;;;;;;;0.15;0.15;;;19.40;99.90;;;;;;5146140;27;20047;-65
2023/06/20 00:34:03;;;;;;;0.35;0.35;;;19.40;99.90;;;;;;5137540;27;20057;-65
2023/06/20 00:36:29;;;;;;;0.22;0.22;;;19.40;99.90;;;;;;5141088;27;20038;-65
2023/06/20 00:38:55;;;;;;;0.22;0.22;;;19.40;99.90;;;;;;5144597;27;20034;-65
2023/06/20 00:41:21;;;;;;;0.10;0.10;;;19.40;99.90;;;;;;5144730;27;20493;-65
2023/06/20 00:43:48;;;;;;;1.95;0.22;;;19.30;99.90;;;;;;5143661;27;20117;-64
2023/06/20 00:46:19;;;;;;;0.20;0.20;;;19.30;99.90;;;;;;5142294;27;20082;-65
2023/06/20 00:48:47;;;;;;;0.30;0.30;;;19.20;99.90;;;;;;5144397;27;20039;-65
2023/06/20 00:51:14;;;;;;;0.43;0.43;;;19.20;99.90;;;;;;5138483;27;20118;-65
2023/06/20 00:53:40;;;;;;;0.10;0.10;;;19.20;99.90;;;;;;5149671;27;20110;-65
2023/06/20 00:56:08;;;;;;;11.82;4.32;;;19.20;99.90;;;;;;5146317;27;20049;-65
2023/06/20 00:58:33;;;;;;;0.80;0.80;;;19.20;99.90;;;;;;5143474;27;20081;-65
2023/06/20 01:00:59;;;;;;;0.57;0.57;;;19.10;99.90;;;;;;5144342;27;20576;-64
2023/06/20 01:03:24;;;;;;;0.98;0.80;;;19.20;99.90;;;;;;5142696;27;20047;-65
2023/06/20 01:06:05;;;;;;;0.32;0.32;;;19.10;99.90;;;;;;5145391;27;20050;-65
2023/06/20 01:08:45;;;;;;;0.00;0.00;;;19.10;99.90;;;;;;5152808;27;20497;-65
2023/06/20 01:11:25;;;;;;;0.47;0.40;;;19.10;99.90;;;;;;5141980;27;20051;-65
2023/06/20 01:14:29;;;;;;;4.32;0.35;;;19.10;99.90;;;;;;5131746;27;20047;-65
2023/06/20 01:17:09;;;;;;;0.47;0.47;;;19.10;99.90;;;;;;5144451;27;20150;-65
2023/06/20 01:19:47;;;;;;;0.95;0.65;;;19.00;99.90;;;;;;5140053;27;20057;-65
2023/06/20 01:22:36;;;;;;;0.17;0.17;;;19.10;99.90;;;;;;5123424;27;20046;-65
2023/06/20 01:25:08;;;;;;;0.43;0.38;;;19.10;99.90;;;;;;5146113;27;20117;-65
2023/06/20 01:27:40;;;;;;;0.10;0.10;;;19.10;99.90;;;;;;5144949;27;20175;-65
2023/06/20 01:30:25;;;;;;;0.90;0.65;;;19.10;99.90;;;;;;5143240;27;20509;-65
2023/06/20 01:32:55;;;;;;;1.20;0.70;;;19.10;99.90;;;;;;5141025;27;20050;-65
2023/06/20 01:35:25;;;;;;;1.45;1.35;;;19.10;99.90;;;;;;5147126;27;20042;-65
2023/06/20 01:37:56;;;;;;;0.60;0.50;;;19.10;99.90;;;;;;5142887;27;20043;-65
2023/06/20 01:40:24;;;;;;;0.30;0.30;;;19.10;99.90;;;;;;5129061;27;20099;-65
2023/06/20 01:42:57;;;;;;;0.70;0.70;;;19.10;99.90;;;;;;5140982;27;20032;-65
2023/06/20 01:45:26;;;;;;;0.20;0.15;;;19.00;99.90;;;;;;5140049;27;20046;-64
2023/06/20 01:47:55;;;;;;;0.32;0.32;;;19.00;99.90;;;;;;5144546;27;20054;-65
2023/06/20 01:50:23;;;;;;;1.25;1.15;;;19.00;99.90;;;;;;5143698;27;20042;-65
2023/06/20 01:52:51;;;;;;;1.02;0.45;;;19.10;99.90;;;;;;5138066;27;20050;-65
2023/06/20 01:55:20;;;;;;;0.25;0.25;;;19.00;99.90;;;;;;5138066;27;20550;-65
2023/06/20 01:57:47;;;;;;;0.13;0.13;;;19.10;99.90;;;;;;5141856;27;20027;-65
2023/06/20 02:00:15;;;;;;;0.10;0.10;;;19.00;99.90;;;;;;5144319;27;20098;-65
2023/06/20 02:02:41;;;;;;;0.85;0.77;;;19.10;99.90;;;;;;5124474;27;20046;-65
2023/06/20 02:05:09;;;;;;;0.68;0.68;;;19.10;99.90;;;;;;5145659;27;20030;-65
2023/06/20 02:07:37;;;;;;;0.40;0.40;;;19.10;99.90;;;;;;5142051;27;20101;-65
2023/06/20 02:10:04;;;;;;;0.45;0.45;;;19.10;99.90;;;;;;5141755;27;20495;-64
2023/06/20 02:12:31;;;;;;;0.40;0.40;;;19.10;99.90;;;;;;5143487;27;20091;-65
2023/06/20 02:14:58;;;;;;;1.38;0.88;;;19.10;99.90;;;;;;5140662;27;20047;-65
2023/06/20 02:17:25;;;;;;;5.35;1.08;;;19.10;99.90;;;;;;5144970;27;20076;-65
2023/06/20 02:19:50;;;;;;;0.68;0.68;;;19.10;99.90;;;;;;5143554;27;20035;-65
2023/06/20 02:22:18;;;;;;;0.45;0.45;;;19.00;99.90;;;;;;5140419;27;20168;-65
2023/06/20 02:24:46;;;;;;;0.90;0.70;;;19.00;99.90;;;;;;5141477;27;20050;-64
2023/06/20 02:27:15;;;;;;;0.30;0.20;;;19.00;99.90;;;;;;5141480;27;20034;-65
2023/06/20 02:29:42;;;;;;;4.47;1.00;;;19.10;99.90;;;;;;5136391;27;20039;-65
2023/06/20 02:32:10;;;;;;;1.30;1.20;;;19.10;99.90;;;;;;5142903;27;20039;-65
2023/06/20 02:34:41;;;;;;;0.88;0.20;;;19.10;99.90;;;;;;5144362;27;20078;-65
2023/06/20 02:37:08;;;;;;;0.70;0.70;;;19.00;99.90;;;;;;5135074;27;20096;-64
2023/06/20 02:39:34;;;;;;;0.50;0.50;;;19.10;99.90;;;;;;5141673;27;20031;-65
2023/06/20 02:42:00;;;;;;;0.47;0.45;;;19.00;99.90;;;;;;5142616;27;20118;-65
2023/06/20 02:44:26;;;;;;;0.60;0.57;;;19.00;99.90;;;;;;5144503;27;20039;-65
2023/06/20 02:47:14;;;;;;;0.57;0.38;;;19.10;99.90;;;;;;5140726;27;20516;-65
2023/06/20 02:49:49;;;;;;;1.65;1.25;;;19.00;99.90;;;;;;5140752;27;20053;-65
2023/06/20 02:52:40;;;;;;;0.10;0.10;;;19.00;99.90;;;;;;5139778;27;20054;-65
2023/06/20 02:55:34;;;;;;;0.30;0.22;;;19.00;99.90;;;;;;5147174;27;20043;-64
2023/06/20 02:58:04;;;;;;;0.00;0.00;;;19.00;99.90;;;;;;5140154;27;20039;-65
2023/06/20 03:00:31;;;;;;;0.95;0.85;;;19.00;99.90;;;;;;5130123;27;20047;-65
2023/06/20 03:03:07;;;;;;;0.65;0.40;;;19.10;99.90;;;;;;5144671;27;20482;-65
2023/06/20 03:05:36;;;;;;;4.10;0.38;;;19.00;99.90;;;;;;5135504;27;20035;-65
2023/06/20 03:08:03;;;;;;;1.30;1.20;;;19.00;99.90;;;;;;5144102;27;20038;-64
2023/06/20 03:10:32;;;;;;;0.47;0.47;;;19.00;99.90;;;;;;5143977;27;20055;-65
2023/06/20 03:12:59;;;;;;;2.03;1.13;;;19.00;99.90;;;;;;5124741;27;20034;-65
2023/06/20 03:15:24;;;;;;;1.90;1.25;;;19.00;99.90;;;;;;5125176;28;20094;-64
2023/06/20 03:17:50;;;;;;;0.60;0.60;;;19.00;99.90;;;;;;5142281;27;20504;-65
2023/06/20 03:20:15;;;;;;;0.00;0.00;;;19.10;99.90;;;;;;5126486;27;20046;-65
2023/06/20 03:22:41;;;;;;;0.43;0.17;;;19.10;99.90;;;;;;5147747;27;20102;-65
2023/06/20 03:25:07;;;;;;;0.55;0.30;;;19.10;99.90;;;;;;5144457;27;20124;-65
2023/06/20 03:27:32;;;;;;;3.20;0.30;;;19.10;99.90;;;;;;5146817;27;20039;-65
2023/06/20 03:30:02;;;;;;;1.48;0.57;;;19.00;99.90;;;;;;5123662;27;20503;-65
2023/06/20 03:32:28;;;;;;;0.10;0.10;;;19.10;99.90;;;;;;5146885;27;20039;-64
2023/06/20 03:34:53;;;;;;;0.38;0.38;;;19.10;99.90;;;;;;5146781;27;20062;-64
2023/06/20 03:37:19;;;;;;;0.35;0.35;;;19.10;99.90;;;;;;5150785;27;20051;-65
2023/06/20 03:39:45;;;;;;;0.08;0.08;;;19.00;99.90;;;;;;5141099;27;20097;-65
2023/06/20 03:42:10;;;;;;;0.05;0.05;;;19.00;99.90;;;;;;5150459;27;20125;-65
2023/06/20 03:44:36;;;;;;;0.77;0.40;;;19.00;99.90;;;;;;5142319;27;20045;-65
2023/06/20 03:47:01;;;;;;;0.52;0.52;;;19.00;99.90;;;;;;5135371;27;20043;-65
2023/06/20 03:49:27;;;;;;;0.45;0.45;;;19.10;99.90;;;;;;5143739;27;20100;-65
2023/06/20 03:51:53;;;;;;;0.60;0.60;;;19.10;99.90;;;;;;5131397;27;20478;-65
2023/06/20 03:54:18;;;;;;;0.63;0.63;;;19.10;99.90;;;;;;5124885;27;20486;-65
2023/06/20 03:56:44;;;;;;;1.60;0.70;;;19.10;99.90;;;;;;5143115;27;20035;-65
2023/06/20 03:59:09;;;;;;;0.70;0.52;;;19.10;99.90;;;;;;5148271;27;20031;-65
2023/06/20 04:01:35;;;;;;;0.70;0.22;;;19.10;99.90;;;;;;5139819;27;20039;-65
2023/06/20 04:04:00;;;;;;;0.38;0.38;;;19.20;99.90;;;;;;5147700;27;20490;-65
2023/06/20 04:06:30;;;;;;;0.52;0.43;;;19.20;99.90;;;;;;5143445;27;20475;-65
2023/06/20 04:08:56;;;;;;;0.45;0.45;;;19.20;99.90;;;;;;5144580;27;20038;-65
2023/06/20 04:11:22;;;;;;;0.30;0.30;;;19.20;99.90;;;;;;5143380;27;20429;-65
2023/06/20 04:13:47;;;;;;;0.35;0.35;;;19.20;99.90;;;;;;5140982;27;20046;-65
2023/06/20 04:16:13;;;;;;;1.02;0.73;;;19.30;99.90;;;;;;5144136;27;20074;-65
2023/06/20 04:18:39;;;;;;;0.20;0.20;;;19.20;99.90;;;;;;5143070;27;20046;-65
2023/06/20 04:21:04;;;;;;;0.45;0.45;;;19.30;99.90;;;;;;5150753;27;20120;-65
2023/06/20 04:23:30;;;;;;;1.00;0.90;;;19.30;99.90;;;;;;5149890;27;20476;-65
2023/06/20 04:25:55;;;;;;;0.00;0.00;;;19.40;99.90;;;;;;5144393;27;20042;-65
2023/06/20 04:28:21;;;;;;;0.22;0.22;;;19.30;99.90;;;;;;5144960;27;20402;-65
2023/06/20 04:30:48;;;;;;;1.48;0.45;;;19.30;99.90;;;;;;5143981;27;20043;-65
2023/06/20 04:33:14;;;;;;;0.73;0.30;;;19.40;99.90;;;;;;5145337;27;20117;-65
2023/06/20 04:35:40;;;;;;;0.90;0.90;;;19.40;99.90;;;;;;5145808;27;20070;-65
2023/06/20 04:38:06;;;;;;;0.10;0.10;;;19.40;99.90;;;;;;5150625;27;20122;-64
2023/06/20 04:40:32;;;;;;;0.22;0.22;;;19.40;99.90;;;;;;5145853;27;20172;-65
2023/06/20 04:42:57;;;;;;;0.10;0.10;;;19.50;99.90;;;;;;5145228;27;20038;-65
2023/06/20 04:45:23;;;;;;;0.10;0.08;;;19.50;99.90;;;;;;5143606;27;20636;-65
2023/06/20 04:47:52;;;;;;;0.10;0.10;;;19.50;99.90;;;;;;5148616;27;20043;-65
2023/06/20 04:50:18;;;;;;;0.10;0.10;;;19.50;99.90;;;;;;5142401;27;20648;-65
2023/06/20 04:52:44;;;;;;;0.35;0.35;;;19.50;99.90;;;;;;5148373;27;20119;-65
2023/06/20 04:55:10;;;;;;;0.00;0.00;;;19.50;99.90;;;;;;5138076;27;20122;-65
2023/06/20 04:57:35;;;;;;;0.20;0.20;;;19.60;99.90;;;;;;5144499;27;20139;-65
2023/06/20 05:00:07;;;;;;;0.00;0.00;;;19.60;99.90;;;;;;5144747;27;20050;-65
2023/06/20 05:02:32;;;;;;;0.52;0.20;;;19.60;99.90;;;;;;5142253;27;20367;-65
2023/06/20 05:04:58;;;;;;;0.00;0.00;;;19.60;99.90;;;;;;5126345;27;20071;-65
2023/06/20 05:07:24;;;;;;;0.38;0.38;;;19.60;99.90;;;;;;5142138;27;20399;-65
2023/06/20 05:09:50;;;;;;;0.00;0.00;;;19.50;99.90;;;;;;5144934;27;20096;-65
2023/06/20 05:12:15;;;;;;;1.25;1.13;;;19.60;99.90;;;;;;5139880;27;20043;-65
2023/06/20 05:14:42;;;;;;;1.00;0.30;;;19.60;99.90;;;;;;5140985;27;20443;-65
2023/06/20 05:17:08;;;;;;;0.20;0.20;;;19.60;99.90;;;;;;5148361;27;20482;-65
2023/06/20 05:19:33;;;;;;;0.00;0.00;;;19.70;99.90;;;;;;5142202;27;20035;-65
2023/06/20 05:21:59;;;;;;;1.33;0.43;;;19.70;99.90;;;;;;5129684;27;20401;-65
2023/06/20 05:24:24;;;;;;;0.32;0.30;;;19.70;99.90;;;;;;5141934;27;20057;-64
2023/06/20 05:26:50;;;;;;;0.00;0.00;;;19.80;99.90;;;;;;5145669;27;20030;-65
2023/06/20 05:29:15;;;;;;;12.30;0.70;;;19.80;99.90;;;;;;5143130;27;20374;-65
2023/06/20 05:31:41;;;;;;;0.00;0.00;;;19.80;99.90;;;;;;5151886;27;20097;-65
2023/06/20 05:34:08;;;;;;;0.13;0.13;;;19.80;99.90;;;;;;5143713;27;20042;-65
2023/06/20 05:36:33;;;;;;;0.15;0.15;;;19.90;99.90;;;;;;5144750;27;20042;-64
2023/06/20 05:38:59;;;;;;;0.10;0.10;;;19.80;99.90;;;;;;5140661;27;20039;-65
2023/06/20 05:41:25;;;;;;;0.00;0.00;;;19.90;99.90;;;;;;5149075;27;20043;-65
2023/06/20 05:43:51;;;;;;;1.45;0.60;;;19.90;99.90;;;;;;5141921;27;20050;-65
2023/06/20 05:46:17;;;;;;;0.10;0.10;;;19.80;99.90;;;;;;5143001;27;20035;-65
2023/06/20 05:48:43;;;;;;;0.10;0.10;;;19.80;99.90;;;;;;5142122;27;20086;-64
2023/06/20 05:51:13;;;;;;;0.10;0.10;;;19.80;99.90;;;;;;5144955;27;20042;-65
2023/06/20 05:53:41;;;;;;;0.38;0.38;;;19.90;99.90;;;;;;5140523;27;20050;-65
2023/06/20 05:56:08;;;;;;;0.55;0.55;;;19.90;99.90;;;;;;5142325;27;20038;-65
2023/06/20 05:58:34;;;;;;;0.35;0.35;;;19.90;99.90;;;;;;5148419;27;20045;-65
2023/06/20 06:01:01;;;;;;;0.13;0.13;;;20.00;99.90;;;;;;5144053;27;20473;-65
2023/06/20 06:03:27;;;;;;;0.77;0.70;;;19.90;99.90;;;;;;5139726;27;20038;-65
2023/06/20 06:05:52;;;;;;;1.10;0.60;;;20.00;99.90;;;;;;5139961;27;20063;-64
2023/06/20 06:08:19;;;;;;;0.75;0.70;;;19.90;99.90;;;;;;5143983;27;20085;-65
2023/06/20 06:10:45;;;;;;;0.10;0.10;;;20.00;99.90;;;;;;5145235;27;20035;-65
2023/06/20 06:13:10;;;;;;;0.40;0.40;;;20.00;99.90;;;;;;5143656;27;20039;-65
2023/06/20 06:15:36;;;;;;;1.02;1.02;;;20.00;99.90;;;;;;5143624;27;20389;-65
2023/06/20 06:18:03;;;;;;;2.03;0.73;;;20.00;99.90;;;;;;5141709;27;20039;-65
2023/06/20 06:20:29;;;;;;;22.02;0.88;;;20.00;99.90;;;;;;5140602;27;20035;-65
2023/06/20 06:22:55;;;;;;;0.22;0.22;;;20.00;99.90;;;;;;5141276;27;20051;-65
2023/06/20 06:25:21;;;;;;;0.17;0.17;;;20.00;99.90;;;;;;5145630;27;20431;-65
2023/06/20 06:27:46;;;;;;;0.80;0.73;;;20.10;99.90;;;;;;5140336;27;20058;-65
2023/06/20 06:30:14;;;;;;;0.00;0.00;;;20.10;99.90;;;;;;5143822;27;20073;-65
2023/06/20 06:32:41;;;;;;;0.43;0.43;;;20.10;99.90;;;;;;5130588;27;20042;-65
2023/06/20 06:35:08;;;;;;;0.50;0.50;;;20.10;99.90;;;;;;5141451;27;20499;-65
2023/06/20 06:37:35;;;;;;;0.32;0.30;;;20.10;99.90;;;;;;5144533;27;20045;-64
2023/06/20 06:40:01;;;;;;;2.92;0.55;;;20.10;99.90;;;;;;5137932;27;20128;-65
2023/06/20 06:42:27;;;;;;;0.10;0.10;;;20.20;99.90;;;;;;5145267;27;20070;-65
2023/06/20 06:44:53;;;;;;;0.13;0.13;;;20.20;99.90;;;;;;5143897;27;20059;-65
2023/06/20 06:47:18;;;;;;;0.20;0.20;;;20.30;99.90;;;;;;5146717;27;20114;-65
2023/06/20 06:49:44;;;;;;;0.50;0.45;;;20.30;99.90;;;;;;5140511;27;20187;-65
2023/06/20 06:52:10;;;;;;;0.30;0.30;;;20.40;99.90;;;;;;5144074;27;20054;-65
2023/06/20 06:54:35;;;;;;;1.45;0.52;;;20.50;99.90;;;;;;5144780;27;20137;-65
2023/06/20 06:57:01;;;;;;;0.00;0.00;;;20.50;99.90;;;;;;5147286;27;20386;-65
2023/06/20 06:59:27;;;;;;;0.43;0.43;;;20.60;99.90;;;;;;5128029;27;20046;-65
2023/06/20 07:01:52;;;;;;;0.08;0.08;;;20.60;99.90;;;;;;5149735;27;20095;-65
2023/06/20 07:04:18;;;;;;;0.35;0.35;;;20.70;99.90;;;;;;5146732;27;20035;-65
2023/06/20 07:06:43;;;;;;;0.30;0.30;;;20.70;99.90;;;;;;5145212;27;20534;-65
2023/06/20 07:09:09;;;;;;;0.17;0.17;;;20.70;99.90;;;;;;5144467;27;20043;-65
2023/06/20 07:11:35;;;;;;;0.55;0.47;;;20.80;99.90;;;;;;5144883;27;20553;-65
2023/06/20 07:14:01;;;;;;;0.52;0.22;;;20.90;99.90;;;;;;5141423;27;20125;-65
2023/06/20 07:16:28;;;;;;;0.20;0.10;;;20.90;99.90;;;;;;5147901;27;20138;-65
2023/06/20 07:18:54;;;;;;;0.00;0.00;;;20.90;99.90;;;;;;5145616;27;20043;-65
2023/06/20 07:21:19;;;;;;;5.28;0.90;;;20.90;99.90;;;;;;5148806;27;20035;-65
2023/06/20 07:23:45;;;;;;;0.10;0.10;;;21.00;99.90;;;;;;5144937;27;20095;-65
2023/06/20 07:26:10;;;;;;;0.43;0.43;;;21.10;99.90;;;;;;5144236;27;20413;-65
2023/06/20 07:28:36;;;;;;;0.40;0.40;;;21.20;99.90;;;;;;5145480;27;20035;-65
2023/06/20 07:31:02;;;;;;;0.00;0.00;;;21.20;99.90;;;;;;5147120;27;20054;-65
2023/06/20 07:33:28;;;;;;;0.47;0.45;;;21.20;99.90;;;;;;5144137;27;20122;-65
2023/06/20 07:35:53;;;;;;;0.17;0.15;;;21.30;99.90;;;;;;5147813;27;20125;-65
2023/06/20 07:38:19;;;;;;;0.75;0.32;;;21.40;99.90;;;;;;5151996;27;20428;-65
2023/06/20 07:40:44;;;;;;;0.05;0.05;;;21.50;99.90;;;;;;5144466;27;20075;-65
2023/06/20 07:43:10;;;;;;;0.08;0.05;;;21.50;99.90;;;;;;5147577;27;20065;-65
2023/06/20 07:45:36;;;;;;;0.65;0.65;;;21.60;99.90;;;;;;5130496;27;20043;-65
2023/06/20 07:48:03;;;;;;;0.22;0.20;;;21.70;99.90;;;;;;5145093;27;20062;-65
2023/06/20 07:50:30;;;;;;;0.10;0.10;;;21.80;99.90;;;;;;5144316;27;20054;-65
2023/06/20 07:52:55;;;;;;;0.70;0.52;;;21.90;99.90;;;;;;5144186;27;20035;-65
2023/06/20 07:55:21;;;;;;;0.50;0.40;;;21.90;99.90;;;;;;5138940;27;20043;-65
2023/06/20 07:57:48;;;;;;;0.10;0.10;;;22.00;99.90;;;;;;5151921;27;20110;-65
2023/06/20 08:00:14;;;;;;;0.47;0.47;;;22.00;99.90;;;;;;5142777;27;20050;-65
2023/06/20 08:02:39;;;;;;;0.20;0.17;;;22.10;99.90;;;;;;5147295;27;20043;-65
2023/06/20 08:05:06;;;;;;;0.35;0.35;;;22.20;99.90;;;;;;5141812;27;20034;-65
2023/06/20 08:07:31;;;;;;;1.00;0.50;;;22.10;99.90;;;;;;5143014;27;20049;-65
2023/06/20 08:09:57;;;;;;;1.85;0.52;;;22.10;99.90;;;;;;5141845;27;20035;-65
2023/06/20 08:12:23;;;;;;;3.63;1.35;;;22.20;99.90;;;;;;5143679;27;20039;-65
2023/06/20 08:14:51;;;;;;;0.30;0.30;;;22.10;99.90;;;;;;5146077;27;20079;-65
2023/06/20 08:17:17;;;;;;;0.57;0.38;;;22.20;99.90;;;;;;5143735;27;20047;-65
2023/06/20 08:19:42;;;;;;;0.77;0.75;;;22.30;99.90;;;;;;5141674;27;20122;-65
2023/06/20 08:22:08;;;;;;;0.25;0.25;;;22.40;99.90;;;;;;5147063;27;20394;-65
2023/06/20 08:24:33;;;;;;;0.20;0.10;;;22.50;99.90;;;;;;5143357;27;20039;-65
2023/06/20 08:26:59;;;;;;;0.30;0.20;;;22.50;99.90;;;;;;5145075;27;20047;-65
2023/06/20 08:29:24;;;;;;;0.32;0.20;;;22.60;99.90;;;;;;5147264;27;20093;-65
2023/06/20 08:31:50;;;;;;;0.22;0.15;;;22.60;99.90;;;;;;5142996;27;20570;-65
2023/06/20 08:34:15;;;;;;;0.20;0.10;;;22.70;99.90;;;;;;5143520;27;20081;-65
2023/06/20 08:36:43;;;;;;;0.00;0.00;;;22.70;99.90;;;;;;5145741;27;20035;-65
2023/06/20 08:39:09;;;;;;;0.55;0.38;;;22.70;99.90;;;;;;5145181;27;20401;-65
2023/06/20 08:41:34;;;;;;;0.30;0.30;;;22.70;99.90;;;;;;5142063;27;20042;-65
2023/06/20 08:44:00;;;;;;;1.00;0.50;;;22.70;99.90;;;;;;5142409;27;20031;-65
2023/06/20 08:46:26;;;;;;;0.77;0.77;;;22.70;99.90;;;;;;5149208;27;20042;-65
2023/06/20 08:48:52;;;;;;;4.13;0.43;;;22.80;99.90;;;;;;5142082;27;20091;-65
2023/06/20 08:51:20;;;;;;;0.13;0.13;;;22.70;99.90;;;;;;5148124;27;20125;-65
2023/06/20 08:53:46;;;;;;;0.00;0.00;;;22.80;99.90;;;;;;5145972;27;20051;-65
2023/06/20 08:56:14;;;;;;;0.50;0.50;;;22.90;99.90;;;;;;5130434;27;20063;-65
2023/06/20 08:58:40;;;;;;;2.38;1.45;;;23.00;99.90;;;;;;5142725;27;20397;-65
2023/06/20 09:01:08;;;;;;;0.10;0.10;;;23.00;99.90;;;;;;5145873;27;20035;-65
2023/06/20 09:03:34;;;;;;;0.20;0.20;;;23.10;99.90;;;;;;5142460;27;20042;-65
2023/06/20 09:06:00;;;;;;;0.32;0.32;;;23.30;99.90;;;;;;5120981;27;20474;-65
2023/06/20 09:08:37;;;;;;;0.10;0.10;;;23.40;99.90;;;;;;5143018;27;20034;-66
2023/06/20 09:11:11;;;;;;;1.73;0.77;;;23.60;99.90;;;;;;5139123;27;20039;-65
2023/06/20 09:13:37;;;;;;;0.00;0.00;;;23.80;99.90;;;;;;5141340;27;20043;-65
2023/06/20 09:16:09;;;;;;;0.98;0.88;;;23.90;99.90;;;;;;5141887;27;20046;-65
2023/06/20 09:18:36;;;;;;;0.47;0.43;;;23.90;99.90;;;;;;5146872;27;20095;-65
2023/06/20 09:21:02;;;;;;;0.75;0.50;;;23.90;99.90;;;;;;5137482;27;20051;-65
2023/06/20 09:23:29;;;;;;;0.88;0.88;;;24.00;99.90;;;;;;5143443;27;20034;-65
2023/06/20 09:26:15;;;;;;;1.38;0.88;;;24.00;99.90;;;;;;5145726;27;20110;-65
2023/06/20 09:28:41;;;;;;;0.90;0.75;;;24.10;99.90;;;;;;5141157;27;20154;-65
2023/06/20 09:31:07;;;;;;;0.50;0.50;;;24.10;99.90;;;;;;5142170;27;20055;-66
2023/06/20 09:33:37;;;;;;;1.25;0.52;;;24.20;99.90;;;;;;5142616;27;20066;-65
2023/06/20 09:36:16;;;;;;;0.10;0.10;;;24.10;99.90;;;;;;5142978;27;20035;-65
2023/06/20 09:38:43;;;;;;;0.30;0.30;;;24.10;99.90;;;;;;5142620;27;20370;-65
2023/06/20 09:41:08;;;;;;;0.00;0.00;;;24.20;99.90;;;;;;5137694;27;20088;-65
2023/06/20 09:43:34;;;;;;;0.10;0.10;;;24.40;99.90;;;;;;5143995;27;20038;-65
2023/06/20 09:46:00;;;;;;;0.20;0.20;;;24.60;99.90;;;;;;5144035;27;20049;-65
2023/06/20 09:48:29;;;;;;;0.63;0.63;;;24.80;99.90;;;;;;5144638;27;20039;-65
2023/06/20 09:50:55;;;;;;;0.70;0.52;;;25.10;99.90;;;;;;5144810;27;20367;-65
2023/06/20 09:53:28;;;;;;;0.73;0.70;;;25.30;99.90;;;;;;5142141;27;20053;-65
2023/06/20 09:55:56;;;;;;;0.03;0.03;;;25.30;99.90;;;;;;5148256;27;20444;-65
2023/06/20 09:58:25;;;;;;;5.38;0.82;;;25.30;99.90;;;;;;5142165;27;20051;-65
2023/06/20 10:00:51;;;;;;;0.35;0.35;;;25.40;99.90;;;;;;5146794;27;20045;-65
2023/06/20 10:03:17;;;;;;;0.73;0.73;;;25.60;99.90;;;;;;5150163;27;20046;-65
2023/06/20 10:05:45;;;;;;;0.30;0.30;;;25.70;99.90;;;;;;5142092;27;20041;-65
2023/06/20 10:08:11;;;;;;;0.55;0.32;;;26.00;99.90;;;;;;5124112;27;20530;-66
2023/06/20 10:10:37;;;;;;;0.60;0.60;;;26.30;99.90;;;;;;5143972;27;20034;-65
2023/06/20 10:13:04;;;;;;;0.60;0.60;;;26.60;99.90;;;;;;5133567;27;20087;-65
2023/06/20 10:15:29;;;;;;;0.85;0.80;;;26.70;99.90;;;;;;5148517;27;20042;-65
2023/06/20 10:17:55;;;;;;;1.30;1.20;;;26.50;99.90;;;;;;5142027;27;20030;-66
2023/06/20 10:20:37;;;;;;;0.65;0.65;;;26.70;99.90;;;;;;5140505;27;20157;-66
2023/06/20 10:23:08;;;;;;;0.22;0.22;;;26.80;99.90;;;;;;5144395;27;20497;-65
2023/06/20 10:25:34;;;;;;;0.38;0.38;;;27.00;99.90;;;;;;5143138;27;20041;-66
2023/06/20 10:28:05;;;;;;;0.10;0.10;;;26.90;99.90;;;;;;5141802;27;20100;-66
2023/06/20 10:30:46;;;;;;;0.22;0.08;;;27.10;99.90;;;;;;5147215;27;20046;-66
2023/06/20 10:33:12;;;;;;;0.43;0.40;;;27.20;99.90;;;;;;5145674;27;20050;-66
2023/06/20 10:35:54;;;;;;;0.20;0.20;;;27.40;99.90;;;;;;5150166;27;20039;-66
2023/06/20 10:38:19;;;;;;;0.00;0.00;;;27.50;99.90;;;;;;5148702;27;20031;-66
2023/06/20 10:40:45;;;;;;;0.00;0.00;;;27.50;99.90;;;;;;5147992;27;20556;-66
2023/06/20 10:43:18;;;;;;;0.80;0.52;;;27.50;99.90;;;;;;5148799;27;20042;-66
2023/06/20 10:45:58;;;;;;;0.00;0.00;;;27.30;99.90;;;;;;5128334;27;20046;-66
2023/06/20 10:48:24;;;;;;;0.75;0.75;;;27.40;99.90;;;;;;5153587;27;20042;-66
2023/06/20 10:50:51;;;;;;;0.25;0.25;;;27.60;99.90;;;;;;5126808;27;20039;-66
2023/06/20 10:53:16;;;;;;;0.30;0.30;;;27.70;99.90;;;;;;5126957;27;20053;-66
2023/06/20 10:55:42;;;;;;;0.30;0.30;;;27.80;99.90;;;;;;5117616;27;20474;-66
2023/06/20 10:58:08;;;;;;;0.50;0.50;;;27.70;99.90;;;;;;5124523;27;20109;-66
2023/06/20 11:00:33;;;;;;;0.20;0.15;;;27.90;99.90;;;;;;5150469;27;20509;-66
2023/06/20 11:02:59;;;;;;;0.20;0.20;;;27.80;99.90;;;;;;5144266;27;20035;-66
2023/06/20 11:05:29;;;;;;;1.95;0.20;;;27.90;99.90;;;;;;5145965;27;20039;-66
2023/06/20 11:08:04;;;;;;;0.20;0.10;;;28.10;99.90;;;;;;5144208;27;20043;-66
2023/06/20 11:10:32;;;;;;;0.38;0.38;;;28.20;99.90;;;;;;5154488;27;20053;-66
2023/06/20 11:12:59;;;;;;;1.55;0.63;;;28.30;99.90;;;;;;5140296;27;20046;-66
2023/06/20 11:15:34;;;;;;;0.38;0.38;;;28.50;99.90;;;;;;5145891;27;20054;-66
2023/06/20 11:18:08;;;;;;;0.38;0.38;;;28.60;99.90;;;;;;5143460;27;20094;-66
2023/06/20 11:20:36;;;;;;;0.90;0.45;;;28.70;99.90;;;;;;5147033;27;20533;-66
2023/06/20 11:23:04;;;;;;;0.32;0.32;;;28.80;99.90;;;;;;5146539;27;20058;-66
2023/06/20 11:25:34;;;;;;;0.17;0.17;;;28.90;99.90;;;;;;5144060;27;20479;-66
2023/06/20 11:28:04;;;;;;;0.40;0.40;;;29.00;99.90;;;;;;5150616;27;20438;-66
2023/06/20 11:30:31;;;;;;;0.35;0.32;;;29.20;99.90;;;;;;5142239;27;20054;-66
2023/06/20 11:33:16;;;;;;;0.15;0.15;;;29.10;99.90;;;;;;5147190;27;20107;-66
2023/06/20 11:35:51;;;;;;;0.25;0.25;;;29.30;99.90;;;;;;5143252;27;20039;-65
2023/06/20 11:38:27;;;;;;;0.52;0.30;;;29.40;99.90;;;;;;5145893;27;20050;-66
2023/06/20 11:41:08;;;;;;;0.60;0.60;;;29.30;99.90;;;;;;5147312;27;20081;-66
2023/06/20 11:43:41;;;;;;;0.22;0.22;;;29.60;99.90;;;;;;5144354;27;20046;-66
2023/06/20 11:46:08;;;;;;;0.30;0.30;;;29.60;99.90;;;;;;5150004;27;20382;-66
2023/06/20 11:48:34;;;;;;;0.00;0.00;;;29.70;99.90;;;;;;5120463;27;20043;-66
2023/06/20 11:51:02;;;;;;;0.17;0.17;;;29.60;99.90;;;;;;5126349;27;20057;-66
2023/06/20 11:53:34;;;;;;;2.28;0.50;;;29.80;99.90;;;;;;5144179;27;20096;-66
2023/06/20 11:56:06;;;;;;;0.50;0.23;;;29.90;99.90;;;;;;5141558;27;20079;-66
2023/06/20 11:58:40;;;;;;;0.00;0.00;;;30.10;99.90;;;;;;5151929;27;20062;-66
2023/06/20 12:01:08;;;;;;;0.25;0.25;;;30.30;99.90;;;;;;5118024;27;20447;-65
2023/06/20 12:03:38;;;;;;;0.10;0.05;;;30.40;99.90;;;;;;5126805;27;20488;-66
2023/06/20 12:06:24;;;;;;;0.00;0.00;;;30.60;99.90;;;;;;5146539;27;20034;-66
2023/06/20 12:08:54;;;;;;;1.02;0.85;;;30.60;99.50;;;;;;5152330;27;20470;-66
2023/06/20 12:11:20;;;;;;;0.75;0.75;;;30.60;99.30;;;;;;5145203;27;20047;-66
2023/06/20 12:13:47;;;;;;;0.00;0.00;;;31.00;99.30;;;;;;5143641;27;20554;-66
2023/06/20 12:16:13;;;;;;;0.10;0.10;;;31.00;98.50;;;;;;5126729;27;20051;-66
2023/06/20 12:18:39;;;;;;;0.20;0.20;;;31.00;99.00;;;;;;5143057;27;20539;-66
2023/06/20 12:21:04;;;;;;;2.00;0.88;;;31.20;99.30;;;;;;5145910;27;20042;-66
2023/06/20 12:23:30;;;;;;;0.10;0.10;;;31.50;99.30;;;;;;5143922;27;20062;-67
2023/06/20 12:25:57;;;;;;;0.00;0.00;;;31.50;98.50;;;;;;5142607;27;20070;-66
2023/06/20 12:28:23;;;;;;;0.10;0.00;;;31.60;98.10;;;;;;5145972;27;20085;-66
2023/06/20 12:30:49;;;;;;;0.00;0.00;;;31.30;97.70;;;;;;5141937;27;20082;-66
2023/06/20 12:33:14;;;;;;;0.00;0.00;;;31.50;98.60;;;;;;5145522;27;20110;-66
2023/06/20 12:35:40;;;;;;;1.33;0.47;;;31.80;98.00;;;;;;5146601;27;20045;-66
2023/06/20 12:38:05;;;;;;;0.20;0.20;;;31.90;98.00;;;;;;5144470;27;20045;-66
2023/06/20 12:40:31;;;;;;;0.17;0.17;;;32.30;98.00;;;;;;5126907;27;20096;-66
2023/06/20 12:42:57;;;;;;;0.15;0.05;;;32.40;98.20;;;;;;5143323;27;20050;-66
2023/06/20 12:45:22;;;;;;;0.65;0.43;;;32.20;97.70;;;;;;5146034;27;20047;-66
2023/06/20 12:47:48;;;;;;;0.10;0.10;;;31.90;97.70;;;;;;5142497;27;20498;-66
2023/06/20 12:50:13;;;;;;;0.20;0.20;;;31.80;97.60;;;;;;5142459;27;20077;-67